Terminal Aerodrome Forecast
Issued by NWS

Home | Current Version | Previous Version | Graphics & Text | Print | Product List | Glossary On
Versions: 1 2 3 4 5 6 7 8 9 10 11 12 13 14 15 16 17 18 19 20 21 22 23 24 25 26 27 28 29
088
FTUS43 KGRB 210236 AAA
TAFRHI
TAF AMD
KRHI 210236Z 2103/2124 18009G18KT 4SM -RA BR OVC005 WS020/22045KT
     FM210600 22009KT 3SM BR BKN006
     FM211300 29005KT 5SM BR BKN007
     FM211600 27008G13KT P6SM SCT250=

USA.gov is the U.S. government's official web portal to all federal, state and local government web resources and services.